Terminal Aerodrome Forecast
Issued by NWS Mt. Holly, NJ

Home | Current Version | Previous Version | Text Only | Print | Product List | Glossary On
Versions: 1 2 3 4 5 6 7 8 9 10 11 12 13 14 15 16 17 18 19 20 21 22 23 24 25 26 27 28 29 30 31 32 33 34 35 36 37 38 39
000
FTUS41 KPHI 161120
TAFRDG
TAF
KRDG 161120Z 1612/1712 21007KT P6SM BKN120
     FM161800 24010KT P6SM VCTS BKN050CB
      TEMPO 1619/1621 4SM TSRA OVC040CB
     FM170100 VRB04KT 6SM BR VCSH BKN040=

USA.gov is the U.S. government's official web portal to all federal, state and local government web resources and services.